sensor_id;sensor_type;location;lat;lon;timestamp;P1;durP1;ratioP1;P2;durP2;ratioP2
3379;SDS011;1703;51.964;7.642;2023-03-14T00:02:24;5.30;;;2.90;;
3379;SDS011;1703;51.964;7.642;2023-03-14T00:04:53;3.90;;;2.00;;
3379;SDS011;1703;51.964;7.642;2023-03-14T00:07:20;3.47;;;1.70;;
3379;SDS011;1703;51.964;7.642;2023-03-14T00:09:49;5.17;;;1.53;;
3379;SDS011;1703;51.964;7.642;2023-03-14T00:12:16;3.53;;;1.63;;
3379;SDS011;1703;51.964;7.642;2023-03-14T00:14:43;7.90;;;2.47;;
3379;SDS011;1703;51.964;7.642;2023-03-14T00:17:10;4.80;;;1.80;;
3379;SDS011;1703;51.964;7.642;2023-03-14T00:19:40;3.93;;;1.83;;
3379;SDS011;1703;51.964;7.642;2023-03-14T00:22:06;7.77;;;2.50;;
3379;SDS011;1703;51.964;7.642;2023-03-14T00:24:33;3.03;;;1.67;;
3379;SDS011;1703;51.964;7.642;2023-03-14T00:27:00;4.40;;;2.10;;
3379;SDS011;1703;51.964;7.642;2023-03-14T00:29:27;8.43;;;1.50;;
3379;SDS011;1703;51.964;7.642;2023-03-14T00:31:53;3.27;;;1.37;;
3379;SDS011;1703;51.964;7.642;2023-03-14T00:34:20;5.13;;;1.60;;
3379;SDS011;1703;51.964;7.642;2023-03-14T00:36:48;9.97;;;2.00;;
3379;SDS011;1703;51.964;7.642;2023-03-14T00:39:15;3.73;;;1.63;;
3379;SDS011;1703;51.964;7.642;2023-03-14T00:41:42;4.40;;;1.47;;
3379;SDS011;1703;51.964;7.642;2023-03-14T00:44:09;4.53;;;2.23;;
3379;SDS011;1703;51.964;7.642;2023-03-14T00:46:35;6.73;;;1.97;;
3379;SDS011;1703;51.964;7.642;2023-03-14T00:49:02;6.60;;;1.97;;
3379;SDS011;1703;51.964;7.642;2023-03-14T00:51:29;7.70;;;2.10;;
3379;SDS011;1703;51.964;7.642;2023-03-14T00:53:58;4.83;;;2.10;;
3379;SDS011;1703;51.964;7.642;2023-03-14T00:56:26;3.77;;;1.53;;
3379;SDS011;1703;51.964;7.642;2023-03-14T00:58:53;5.83;;;1.90;;
3379;SDS011;1703;51.964;7.642;2023-03-14T01:01:21;6.30;;;2.07;;
3379;SDS011;1703;51.964;7.642;2023-03-14T01:03:50;7.90;;;1.70;;
3379;SDS011;1703;51.964;7.642;2023-03-14T01:06:18;9.93;;;1.73;;
3379;SDS011;1703;51.964;7.642;2023-03-14T01:08:47;6.70;;;1.87;;
3379;SDS011;1703;51.964;7.642;2023-03-14T01:11:16;6.93;;;1.50;;
3379;SDS011;1703;51.964;7.642;2023-03-14T01:13:44;2.97;;;1.20;;
3379;SDS011;1703;51.964;7.642;2023-03-14T01:16:12;3.67;;;1.70;;
3379;SDS011;1703;51.964;7.642;2023-03-14T01:18:40;3.60;;;1.40;;
3379;SDS011;1703;51.964;7.642;2023-03-14T01:21:12;5.57;;;1.67;;
3379;SDS011;1703;51.964;7.642;2023-03-14T01:23:41;4.70;;;1.50;;
3379;SDS011;1703;51.964;7.642;2023-03-14T01:26:08;9.73;;;1.30;;
3379;SDS011;1703;51.964;7.642;2023-03-14T01:28:37;6.30;;;2.13;;
3379;SDS011;1703;51.964;7.642;2023-03-14T01:31:05;5.50;;;2.03;;
3379;SDS011;1703;51.964;7.642;2023-03-14T01:33:33;4.53;;;2.07;;
3379;SDS011;1703;51.964;7.642;2023-03-14T01:36:01;15.33;;;2.17;;
3379;SDS011;1703;51.964;7.642;2023-03-14T01:38:28;5.60;;;2.17;;
3379;SDS011;1703;51.964;7.642;2023-03-14T01:40:55;10.53;;;1.70;;
3379;SDS011;1703;51.964;7.642;2023-03-14T01:43:22;3.23;;;1.60;;
3379;SDS011;1703;51.964;7.642;2023-03-14T01:46:14;4.20;;;1.53;;
3379;SDS011;1703;51.964;7.642;2023-03-14T01:48:48;9.90;;;2.70;;
3379;SDS011;1703;51.964;7.642;2023-03-14T01:51:21;6.93;;;2.13;;
3379;SDS011;1703;51.964;7.642;2023-03-14T01:53:57;7.77;;;2.10;;
3379;SDS011;1703;51.964;7.642;2023-03-14T01:56:28;4.70;;;1.67;;
3379;SDS011;1703;51.964;7.642;2023-03-14T01:58:56;14.87;;;2.83;;
3379;SDS011;1703;51.964;7.642;2023-03-14T02:01:26;5.77;;;1.80;;
3379;SDS011;1703;51.964;7.642;2023-03-14T02:03:55;1.70;;;1.00;;
3379;SDS011;1703;51.964;7.642;2023-03-14T02:06:26;4.47;;;2.07;;
3379;SDS011;1703;51.964;7.642;2023-03-14T02:09:00;5.80;;;1.70;;
3379;SDS011;1703;51.964;7.642;2023-03-14T02:11:31;6.73;;;1.40;;
3379;SDS011;1703;51.964;7.642;2023-03-14T02:14:05;7.40;;;1.53;;
3379;SDS011;1703;51.964;7.642;2023-03-14T02:16:53;3.20;;;1.20;;
3379;SDS011;1703;51.964;7.642;2023-03-14T02:19:50;2.13;;;0.93;;
3379;SDS011;1703;51.964;7.642;2023-03-14T02:22:37;4.10;;;1.03;;
3379;SDS011;1703;51.964;7.642;2023-03-14T02:25:08;8.40;;;1.43;;
3379;SDS011;1703;51.964;7.642;2023-03-14T02:27:41;1.87;;;1.43;;
3379;SDS011;1703;51.964;7.642;2023-03-14T02:30:10;3.27;;;1.33;;
3379;SDS011;1703;51.964;7.642;2023-03-14T02:32:42;5.53;;;1.30;;
3379;SDS011;1703;51.964;7.642;2023-03-14T02:35:14;4.80;;;1.60;;
3379;SDS011;1703;51.964;7.642;2023-03-14T02:37:46;13.53;;;2.07;;
3379;SDS011;1703;51.964;7.642;2023-03-14T02:40:15;8.60;;;1.53;;
3379;SDS011;1703;51.964;7.642;2023-03-14T02:42:44;4.23;;;1.97;;
3379;SDS011;1703;51.964;7.642;2023-03-14T02:48:01;6.20;;;1.40;;
3379;SDS011;1703;51.964;7.642;2023-03-14T02:50:32;5.83;;;1.37;;
3379;SDS011;1703;51.964;7.642;2023-03-14T02:53:00;3.40;;;1.60;;
3379;SDS011;1703;51.964;7.642;2023-03-14T02:55:27;5.40;;;1.33;;
3379;SDS011;1703;51.964;7.642;2023-03-14T02:58:00;6.87;;;1.47;;
3379;SDS011;1703;51.964;7.642;2023-03-14T03:00:27;6.87;;;1.50;;
3379;SDS011;1703;51.964;7.642;2023-03-14T03:02:55;1.27;;;1.10;;
3379;SDS011;1703;51.964;7.642;2023-03-14T03:05:22;2.70;;;1.40;;
3379;SDS011;1703;51.964;7.642;2023-03-14T03:07:49;2.83;;;0.90;;
3379;SDS011;1703;51.964;7.642;2023-03-14T03:10:17;8.17;;;2.50;;
3379;SDS011;1703;51.964;7.642;2023-03-14T03:12:43;2.83;;;1.10;;
3379;SDS011;1703;51.964;7.642;2023-03-14T03:15:12;13.80;;;2.50;;
3379;SDS011;1703;51.964;7.642;2023-03-14T03:17:39;6.43;;;0.90;;
3379;SDS011;1703;51.964;7.642;2023-03-14T03:20:06;3.50;;;1.13;;
3379;SDS011;1703;51.964;7.642;2023-03-14T03:22:34;3.27;;;1.23;;
3379;SDS011;1703;51.964;7.642;2023-03-14T03:25:01;7.00;;;2.70;;
3379;SDS011;1703;51.964;7.642;2023-03-14T03:27:29;7.07;;;1.43;;
3379;SDS011;1703;51.964;7.642;2023-03-14T03:29:57;9.57;;;1.87;;
3379;SDS011;1703;51.964;7.642;2023-03-14T03:32:26;8.73;;;1.63;;
3379;SDS011;1703;51.964;7.642;2023-03-14T03:34:53;3.10;;;1.10;;
3379;SDS011;1703;51.964;7.642;2023-03-14T03:37:19;4.67;;;0.97;;
3379;SDS011;1703;51.964;7.642;2023-03-14T03:39:46;5.00;;;1.70;;
3379;SDS011;1703;51.964;7.642;2023-03-14T03:42:13;6.37;;;1.70;;
3379;SDS011;1703;51.964;7.642;2023-03-14T03:44:40;4.40;;;1.30;;
3379;SDS011;1703;51.964;7.642;2023-03-14T03:47:09;5.00;;;1.37;;
3379;SDS011;1703;51.964;7.642;2023-03-14T03:49:37;5.63;;;1.97;;
3379;SDS011;1703;51.964;7.642;2023-03-14T03:52:05;3.47;;;2.10;;
3379;SDS011;1703;51.964;7.642;2023-03-14T03:54:32;7.70;;;2.37;;
3379;SDS011;1703;51.964;7.642;2023-03-14T03:56:59;11.13;;;2.37;;
3379;SDS011;1703;51.964;7.642;2023-03-14T03:59:26;2.00;;;1.83;;
3379;SDS011;1703;51.964;7.642;2023-03-14T04:01:53;6.87;;;3.03;;
3379;SDS011;1703;51.964;7.642;2023-03-14T04:04:20;7.10;;;2.87;;
3379;SDS011;1703;51.964;7.642;2023-03-14T04:06:48;4.53;;;2.23;;
3379;SDS011;1703;51.964;7.642;2023-03-14T04:09:15;12.17;;;3.80;;
3379;SDS011;1703;51.964;7.642;2023-03-14T04:11:45;5.83;;;2.40;;
3379;SDS011;1703;51.964;7.642;2023-03-14T04:14:18;3.23;;;1.87;;
3379;SDS011;1703;51.964;7.642;2023-03-14T04:16:45;4.67;;;2.00;;
3379;SDS011;1703;51.964;7.642;2023-03-14T04:19:15;11.63;;;2.83;;
3379;SDS011;1703;51.964;7.642;2023-03-14T04:21:42;13.23;;;2.60;;
3379;SDS011;1703;51.964;7.642;2023-03-14T04:24:12;6.93;;;2.50;;
3379;SDS011;1703;51.964;7.642;2023-03-14T04:26:41;3.10;;;1.90;;
3379;SDS011;1703;51.964;7.642;2023-03-14T04:29:10;14.97;;;2.60;;
3379;SDS011;1703;51.964;7.642;2023-03-14T04:31:36;9.97;;;2.37;;
3379;SDS011;1703;51.964;7.642;2023-03-14T04:34:03;13.47;;;2.80;;
3379;SDS011;1703;51.964;7.642;2023-03-14T04:36:35;7.07;;;2.07;;
3379;SDS011;1703;51.964;7.642;2023-03-14T04:39:05;8.13;;;2.27;;
3379;SDS011;1703;51.964;7.642;2023-03-14T04:41:37;6.60;;;2.00;;
3379;SDS011;1703;51.964;7.642;2023-03-14T04:44:05;19.10;;;3.00;;
3379;SDS011;1703;51.964;7.642;2023-03-14T04:46:33;8.93;;;1.93;;
3379;SDS011;1703;51.964;7.642;2023-03-14T04:49:02;6.73;;;1.97;;
3379;SDS011;1703;51.964;7.642;2023-03-14T04:51:29;3.83;;;1.70;;
3379;SDS011;1703;51.964;7.642;2023-03-14T04:53:55;8.37;;;2.37;;
3379;SDS011;1703;51.964;7.642;2023-03-14T04:56:23;8.20;;;2.10;;
3379;SDS011;1703;51.964;7.642;2023-03-14T04:58:52;6.90;;;1.57;;
3379;SDS011;1703;51.964;7.642;2023-03-14T05:01:19;4.10;;;1.73;;
3379;SDS011;1703;51.964;7.642;2023-03-14T05:03:46;8.73;;;2.30;;
3379;SDS011;1703;51.964;7.642;2023-03-14T05:06:51;3.70;;;1.70;;
3379;SDS011;1703;51.964;7.642;2023-03-14T05:09:33;2.87;;;1.47;;
3379;SDS011;1703;51.964;7.642;2023-03-14T05:12:13;5.17;;;1.70;;
3379;SDS011;1703;51.964;7.642;2023-03-14T05:14:55;8.63;;;2.00;;
3379;SDS011;1703;51.964;7.642;2023-03-14T05:17:42;9.20;;;2.67;;
3379;SDS011;1703;51.964;7.642;2023-03-14T05:20:27;6.30;;;1.93;;
3379;SDS011;1703;51.964;7.642;2023-03-14T05:23:29;3.47;;;1.80;;
3379;SDS011;1703;51.964;7.642;2023-03-14T05:25:56;6.10;;;3.80;;
3379;SDS011;1703;51.964;7.642;2023-03-14T05:28:34;6.50;;;2.00;;
3379;SDS011;1703;51.964;7.642;2023-03-14T05:31:12;2.60;;;0.87;;
3379;SDS011;1703;51.964;7.642;2023-03-14T05:33:47;6.40;;;1.80;;
3379;SDS011;1703;51.964;7.642;2023-03-14T05:36:27;8.80;;;1.93;;
3379;SDS011;1703;51.964;7.642;2023-03-14T05:38:54;3.60;;;1.60;;
3379;SDS011;1703;51.964;7.642;2023-03-14T05:41:40;7.33;;;1.50;;
3379;SDS011;1703;51.964;7.642;2023-03-14T05:44:19;2.90;;;0.90;;
3379;SDS011;1703;51.964;7.642;2023-03-14T05:47:00;7.63;;;1.53;;
3379;SDS011;1703;51.964;7.642;2023-03-14T05:49:40;6.03;;;1.07;;
3379;SDS011;1703;51.964;7.642;2023-03-14T05:52:29;1.53;;;0.97;;
3379;SDS011;1703;51.964;7.642;2023-03-14T05:55:07;4.20;;;1.37;;
3379;SDS011;1703;51.964;7.642;2023-03-14T05:57:52;2.60;;;1.00;;
3379;SDS011;1703;51.964;7.642;2023-03-14T06:00:34;4.47;;;1.53;;
3379;SDS011;1703;51.964;7.642;2023-03-14T06:03:17;1.43;;;1.00;;
3379;SDS011;1703;51.964;7.642;2023-03-14T06:05:46;5.03;;;0.80;;
3379;SDS011;1703;51.964;7.642;2023-03-14T06:08:17;1.53;;;0.60;;
3379;SDS011;1703;51.964;7.642;2023-03-14T06:10:45;1.37;;;0.80;;
3379;SDS011;1703;51.964;7.642;2023-03-14T06:13:12;2.20;;;0.70;;
3379;SDS011;1703;51.964;7.642;2023-03-14T06:15:41;3.67;;;1.30;;
3379;SDS011;1703;51.964;7.642;2023-03-14T06:18:09;6.00;;;1.37;;
3379;SDS011;1703;51.964;7.642;2023-03-14T06:20:37;1.73;;;1.00;;
3379;SDS011;1703;51.964;7.642;2023-03-14T06:23:06;0.80;;;0.73;;
3379;SDS011;1703;51.964;7.642;2023-03-14T06:25:33;1.27;;;0.90;;
3379;SDS011;1703;51.964;7.642;2023-03-14T06:28:01;5.00;;;1.47;;
3379;SDS011;1703;51.964;7.642;2023-03-14T06:30:28;1.30;;;0.90;;
3379;SDS011;1703;51.964;7.642;2023-03-14T06:33:00;2.17;;;0.90;;
3379;SDS011;1703;51.964;7.642;2023-03-14T06:35:28;1.00;;;0.90;;
3379;SDS011;1703;51.964;7.642;2023-03-14T06:37:57;4.90;;;1.33;;
3379;SDS011;1703;51.964;7.642;2023-03-14T06:40:24;6.80;;;1.50;;
3379;SDS011;1703;51.964;7.642;2023-03-14T06:43:09;1.53;;;1.43;;
3379;SDS011;1703;51.964;7.642;2023-03-14T06:45:38;2.93;;;1.90;;
3379;SDS011;1703;51.964;7.642;2023-03-14T06:48:05;5.53;;;1.70;;
3379;SDS011;1703;51.964;7.642;2023-03-14T06:50:39;2.27;;;2.00;;
3379;SDS011;1703;51.964;7.642;2023-03-14T06:53:08;4.10;;;2.20;;
3379;SDS011;1703;51.964;7.642;2023-03-14T06:55:38;2.43;;;2.27;;
3379;SDS011;1703;51.964;7.642;2023-03-14T06:58:06;2.83;;;2.33;;
3379;SDS011;1703;51.964;7.642;2023-03-14T07:00:38;4.60;;;2.53;;
3379;SDS011;1703;51.964;7.642;2023-03-14T07:03:05;1.57;;;1.47;;
3379;SDS011;1703;51.964;7.642;2023-03-14T07:05:37;2.53;;;1.80;;
3379;SDS011;1703;51.964;7.642;2023-03-14T07:08:05;2.13;;;1.93;;
3379;SDS011;1703;51.964;7.642;2023-03-14T07:10:34;1.40;;;1.30;;
3379;SDS011;1703;51.964;7.642;2023-03-14T07:15:53;1.90;;;1.80;;
3379;SDS011;1703;51.964;7.642;2023-03-14T07:18:20;2.20;;;1.67;;
3379;SDS011;1703;51.964;7.642;2023-03-14T07:20:47;1.63;;;1.53;;
3379;SDS011;1703;51.964;7.642;2023-03-14T07:23:17;1.67;;;1.57;;
3379;SDS011;1703;51.964;7.642;2023-03-14T07:25:54;2.13;;;1.90;;
3379;SDS011;1703;51.964;7.642;2023-03-14T07:28:24;2.40;;;2.20;;
3379;SDS011;1703;51.964;7.642;2023-03-14T07:30:58;3.67;;;2.03;;
3379;SDS011;1703;51.964;7.642;2023-03-14T07:33:29;2.53;;;2.33;;
3379;SDS011;1703;51.964;7.642;2023-03-14T07:35:56;2.73;;;2.53;;
3379;SDS011;1703;51.964;7.642;2023-03-14T07:38:24;3.97;;;3.67;;
3379;SDS011;1703;51.964;7.642;2023-03-14T07:41:10;3.57;;;2.90;;
3379;SDS011;1703;51.964;7.642;2023-03-14T07:43:47;3.77;;;3.47;;
3379;SDS011;1703;51.964;7.642;2023-03-14T07:46:14;3.60;;;3.23;;
3379;SDS011;1703;51.964;7.642;2023-03-14T07:48:42;3.27;;;2.97;;
3379;SDS011;1703;51.964;7.642;2023-03-14T07:51:09;6.77;;;3.77;;
3379;SDS011;1703;51.964;7.642;2023-03-14T07:53:36;4.83;;;4.43;;
3379;SDS011;1703;51.964;7.642;2023-03-14T07:56:03;3.73;;;3.43;;
3379;SDS011;1703;51.964;7.642;2023-03-14T07:58:32;3.60;;;3.30;;
3379;SDS011;1703;51.964;7.642;2023-03-14T08:00:59;4.83;;;3.93;;
3379;SDS011;1703;51.964;7.642;2023-03-14T08:03:25;3.93;;;3.00;;
3379;SDS011;1703;51.964;7.642;2023-03-14T08:05:52;4.27;;;3.83;;
3379;SDS011;1703;51.964;7.642;2023-03-14T08:08:19;4.40;;;4.10;;
3379;SDS011;1703;51.964;7.642;2023-03-14T08:10:46;6.80;;;5.20;;
3379;SDS011;1703;51.964;7.642;2023-03-14T08:13:13;4.87;;;4.47;;
3379;SDS011;1703;51.964;7.642;2023-03-14T08:15:41;5.57;;;5.10;;
3379;SDS011;1703;51.964;7.642;2023-03-14T08:18:08;6.33;;;5.73;;
3379;SDS011;1703;51.964;7.642;2023-03-14T08:20:35;7.80;;;4.50;;
3379;SDS011;1703;51.964;7.642;2023-03-14T08:23:02;16.63;;;4.97;;
3379;SDS011;1703;51.964;7.642;2023-03-14T08:25:29;6.90;;;6.07;;
3379;SDS011;1703;51.964;7.642;2023-03-14T08:27:56;5.43;;;4.93;;
3379;SDS011;1703;51.964;7.642;2023-03-14T08:30:23;7.23;;;5.03;;
3379;SDS011;1703;51.964;7.642;2023-03-14T08:32:51;6.17;;;4.73;;
3379;SDS011;1703;51.964;7.642;2023-03-14T08:35:18;4.67;;;4.27;;
3379;SDS011;1703;51.964;7.642;2023-03-14T08:37:45;8.00;;;4.50;;
3379;SDS011;1703;51.964;7.642;2023-03-14T08:40:12;4.50;;;4.10;;
3379;SDS011;1703;51.964;7.642;2023-03-14T08:42:40;4.30;;;4.00;;
3379;SDS011;1703;51.964;7.642;2023-03-14T08:45:08;5.57;;;4.50;;
3379;SDS011;1703;51.964;7.642;2023-03-14T08:47:37;5.83;;;4.00;;
3379;SDS011;1703;51.964;7.642;2023-03-14T08:50:06;4.57;;;4.17;;
3379;SDS011;1703;51.964;7.642;2023-03-14T08:52:34;7.50;;;4.40;;
3379;SDS011;1703;51.964;7.642;2023-03-14T08:55:03;11.97;;;4.20;;
3379;SDS011;1703;51.964;7.642;2023-03-14T08:57:30;4.30;;;4.00;;
3379;SDS011;1703;51.964;7.642;2023-03-14T08:59:57;4.90;;;4.40;;
3379;SDS011;1703;51.964;7.642;2023-03-14T09:02:24;4.90;;;4.50;;
3379;SDS011;1703;51.964;7.642;2023-03-14T09:04:52;4.80;;;4.50;;
3379;SDS011;1703;51.964;7.642;2023-03-14T09:07:20;4.77;;;4.37;;
3379;SDS011;1703;51.964;7.642;2023-03-14T09:09:47;9.63;;;5.23;;
3379;SDS011;1703;51.964;7.642;2023-03-14T09:12:14;5.63;;;5.13;;
3379;SDS011;1703;51.964;7.642;2023-03-14T09:14:41;6.30;;;5.37;;
3379;SDS011;1703;51.964;7.642;2023-03-14T09:17:07;7.20;;;4.87;;
3379;SDS011;1703;51.964;7.642;2023-03-14T09:19:34;5.67;;;5.23;;
3379;SDS011;1703;51.964;7.642;2023-03-14T09:22:01;4.97;;;4.57;;
3379;SDS011;1703;51.964;7.642;2023-03-14T09:24:30;4.60;;;4.20;;
3379;SDS011;1703;51.964;7.642;2023-03-14T09:26:57;4.67;;;4.23;;
3379;SDS011;1703;51.964;7.642;2023-03-14T09:29:24;4.40;;;4.10;;
3379;SDS011;1703;51.964;7.642;2023-03-14T09:31:50;4.20;;;3.80;;
3379;SDS011;1703;51.964;7.642;2023-03-14T09:34:18;4.07;;;3.67;;
3379;SDS011;1703;51.964;7.642;2023-03-14T09:36:44;4.17;;;3.80;;
3379;SDS011;1703;51.964;7.642;2023-03-14T09:39:11;4.90;;;3.63;;
3379;SDS011;1703;51.964;7.642;2023-03-14T09:41:41;3.60;;;3.30;;
3379;SDS011;1703;51.964;7.642;2023-03-14T09:44:10;2.57;;;1.80;;
3379;SDS011;1703;51.964;7.642;2023-03-14T09:46:41;1.17;;;0.83;;
3379;SDS011;1703;51.964;7.642;2023-03-14T09:49:13;1.10;;;0.77;;
3379;SDS011;1703;51.964;7.642;2023-03-14T09:51:46;1.43;;;0.80;;
3379;SDS011;1703;51.964;7.642;2023-03-14T09:54:17;1.33;;;1.00;;
3379;SDS011;1703;51.964;7.642;2023-03-14T09:56:54;2.10;;;0.80;;
3379;SDS011;1703;51.964;7.642;2023-03-14T09:59:21;0.70;;;0.50;;
3379;SDS011;1703;51.964;7.642;2023-03-14T10:01:48;0.80;;;0.50;;
3379;SDS011;1703;51.964;7.642;2023-03-14T10:04:15;0.60;;;0.60;;
3379;SDS011;1703;51.964;7.642;2023-03-14T10:06:47;1.90;;;0.50;;
3379;SDS011;1703;51.964;7.642;2023-03-14T10:09:15;0.57;;;0.53;;
3379;SDS011;1703;51.964;7.642;2023-03-14T10:11:50;0.70;;;0.70;;
3379;SDS011;1703;51.964;7.642;2023-03-14T10:14:31;2.10;;;0.60;;
3379;SDS011;1703;51.964;7.642;2023-03-14T10:17:04;1.20;;;0.57;;
3379;SDS011;1703;51.964;7.642;2023-03-14T10:19:33;0.93;;;0.60;;
3379;SDS011;1703;51.964;7.642;2023-03-14T10:22:01;0.60;;;0.50;;
3379;SDS011;1703;51.964;7.642;2023-03-14T10:24:30;1.00;;;0.60;;
3379;SDS011;1703;51.964;7.642;2023-03-14T10:27:01;0.90;;;0.60;;
3379;SDS011;1703;51.964;7.642;2023-03-14T10:29:29;2.00;;;0.73;;
3379;SDS011;1703;51.964;7.642;2023-03-14T10:31:57;0.70;;;0.70;;
3379;SDS011;1703;51.964;7.642;2023-03-14T10:34:27;1.20;;;0.70;;
3379;SDS011;1703;51.964;7.642;2023-03-14T10:36:56;1.37;;;0.60;;
3379;SDS011;1703;51.964;7.642;2023-03-14T10:39:29;2.33;;;0.70;;
3379;SDS011;1703;51.964;7.642;2023-03-14T10:42:09;0.50;;;0.50;;
3379;SDS011;1703;51.964;7.642;2023-03-14T10:44:41;0.60;;;0.60;;
3379;SDS011;1703;51.964;7.642;2023-03-14T10:47:15;0.50;;;0.50;;
3379;SDS011;1703;51.964;7.642;2023-03-14T10:49:44;2.57;;;0.70;;
3379;SDS011;1703;51.964;7.642;2023-03-14T10:52:17;1.47;;;0.80;;
3379;SDS011;1703;51.964;7.642;2023-03-14T10:54:48;0.80;;;0.70;;
3379;SDS011;1703;51.964;7.642;2023-03-14T10:57:18;0.70;;;0.70;;
3379;SDS011;1703;51.964;7.642;2023-03-14T10:59:45;1.53;;;0.90;;
3379;SDS011;1703;51.964;7.642;2023-03-14T11:05:16;2.40;;;0.70;;
3379;SDS011;1703;51.964;7.642;2023-03-14T11:07:51;0.90;;;0.80;;
3379;SDS011;1703;51.964;7.642;2023-03-14T11:10:21;1.17;;;1.10;;
3379;SDS011;1703;51.964;7.642;2023-03-14T11:12:57;2.50;;;0.90;;
3379;SDS011;1703;51.964;7.642;2023-03-14T11:15:32;1.87;;;0.93;;
3379;SDS011;1703;51.964;7.642;2023-03-14T11:18:09;0.80;;;0.60;;
3379;SDS011;1703;51.964;7.642;2023-03-14T11:20:49;6.67;;;1.23;;
3379;SDS011;1703;51.964;7.642;2023-03-14T11:23:20;1.90;;;0.80;;
3379;SDS011;1703;51.964;7.642;2023-03-14T11:25:49;0.70;;;0.60;;
3379;SDS011;1703;51.964;7.642;2023-03-14T11:28:26;0.90;;;0.63;;
3379;SDS011;1703;51.964;7.642;2023-03-14T11:31:01;3.37;;;0.80;;
3379;SDS011;1703;51.964;7.642;2023-03-14T11:33:35;2.97;;;1.40;;
3379;SDS011;1703;51.964;7.642;2023-03-14T11:36:04;1.33;;;0.67;;
3379;SDS011;1703;51.964;7.642;2023-03-14T11:38:34;2.07;;;0.80;;
3379;SDS011;1703;51.964;7.642;2023-03-14T11:41:09;1.17;;;0.50;;
3379;SDS011;1703;51.964;7.642;2023-03-14T11:43:41;1.33;;;0.80;;
3379;SDS011;1703;51.964;7.642;2023-03-14T11:46:15;2.83;;;1.00;;
3379;SDS011;1703;51.964;7.642;2023-03-14T11:48:50;4.00;;;1.50;;
3379;SDS011;1703;51.964;7.642;2023-03-14T11:51:25;8.70;;;1.40;;
3379;SDS011;1703;51.964;7.642;2023-03-14T11:53:58;12.87;;;1.50;;
3379;SDS011;1703;51.964;7.642;2023-03-14T11:56:32;2.20;;;1.30;;
3379;SDS011;1703;51.964;7.642;2023-03-14T11:59:09;4.80;;;1.60;;
3379;SDS011;1703;51.964;7.642;2023-03-14T12:01:49;1.80;;;1.33;;
3379;SDS011;1703;51.964;7.642;2023-03-14T12:04:22;1.70;;;1.60;;
3379;SDS011;1703;51.964;7.642;2023-03-14T12:06:58;4.50;;;1.80;;
3379;SDS011;1703;51.964;7.642;2023-03-14T12:09:29;3.43;;;1.53;;
3379;SDS011;1703;51.964;7.642;2023-03-14T12:11:57;6.73;;;1.67;;
3379;SDS011;1703;51.964;7.642;2023-03-14T12:14:29;9.53;;;2.47;;
3379;SDS011;1703;51.964;7.642;2023-03-14T12:16:59;5.60;;;1.23;;
3379;SDS011;1703;51.964;7.642;2023-03-14T12:19:32;2.40;;;1.20;;
3379;SDS011;1703;51.964;7.642;2023-03-14T12:24:50;7.37;;;1.83;;
3379;SDS011;1703;51.964;7.642;2023-03-14T12:27:40;11.70;;;2.00;;
3379;SDS011;1703;51.964;7.642;2023-03-14T12:30:18;4.60;;;2.13;;
3379;SDS011;1703;51.964;7.642;2023-03-14T12:33:11;7.80;;;2.20;;
3379;SDS011;1703;51.964;7.642;2023-03-14T12:35:57;12.47;;;2.50;;
3379;SDS011;1703;51.964;7.642;2023-03-14T12:38:47;6.43;;;2.00;;
3379;SDS011;1703;51.964;7.642;2023-03-14T12:41:24;10.13;;;1.53;;
3379;SDS011;1703;51.964;7.642;2023-03-14T12:43:54;10.50;;;2.50;;
3379;SDS011;1703;51.964;7.642;2023-03-14T12:46:24;11.00;;;1.83;;
3379;SDS011;1703;51.964;7.642;2023-03-14T12:48:55;11.40;;;1.87;;
3379;SDS011;1703;51.964;7.642;2023-03-14T12:51:33;16.70;;;2.27;;
3379;SDS011;1703;51.964;7.642;2023-03-14T12:57:06;11.70;;;1.97;;
3379;SDS011;1703;51.964;7.642;2023-03-14T12:59:45;7.03;;;1.70;;
3379;SDS011;1703;51.964;7.642;2023-03-14T13:05:08;14.73;;;2.13;;
3379;SDS011;1703;51.964;7.642;2023-03-14T13:10:38;5.43;;;2.30;;
3379;SDS011;1703;51.964;7.642;2023-03-14T13:13:12;8.13;;;2.20;;
3379;SDS011;1703;51.964;7.642;2023-03-14T13:15:44;10.00;;;2.40;;
3379;SDS011;1703;51.964;7.642;2023-03-14T13:18:15;10.07;;;2.33;;
3379;SDS011;1703;51.964;7.642;2023-03-14T13:20:45;8.80;;;2.17;;
3379;SDS011;1703;51.964;7.642;2023-03-14T13:23:20;10.80;;;1.90;;
3379;SDS011;1703;51.964;7.642;2023-03-14T13:25:48;18.27;;;3.40;;
3379;SDS011;1703;51.964;7.642;2023-03-14T13:28:15;24.80;;;2.70;;
3379;SDS011;1703;51.964;7.642;2023-03-14T13:33:16;10.03;;;2.60;;
3379;SDS011;1703;51.964;7.642;2023-03-14T13:35:45;12.30;;;4.50;;
3379;SDS011;1703;51.964;7.642;2023-03-14T13:38:15;17.23;;;4.00;;
3379;SDS011;1703;51.964;7.642;2023-03-14T13:40:44;14.30;;;2.30;;
3379;SDS011;1703;51.964;7.642;2023-03-14T13:43:16;11.60;;;2.97;;
3379;SDS011;1703;51.964;7.642;2023-03-14T13:45:45;15.67;;;2.70;;
3379;SDS011;1703;51.964;7.642;2023-03-14T13:48:17;10.27;;;2.73;;
3379;SDS011;1703;51.964;7.642;2023-03-14T13:50:45;10.00;;;2.37;;
3379;SDS011;1703;51.964;7.642;2023-03-14T13:53:17;6.73;;;2.77;;
3379;SDS011;1703;51.964;7.642;2023-03-14T13:55:44;12.60;;;2.50;;
3379;SDS011;1703;51.964;7.642;2023-03-14T13:58:19;14.87;;;2.10;;
3379;SDS011;1703;51.964;7.642;2023-03-14T14:01:05;18.13;;;2.57;;
3379;SDS011;1703;51.964;7.642;2023-03-14T14:03:41;8.90;;;1.97;;
3379;SDS011;1703;51.964;7.642;2023-03-14T14:06:10;8.10;;;2.30;;
3379;SDS011;1703;51.964;7.642;2023-03-14T14:08:47;9.53;;;1.90;;
3379;SDS011;1703;51.964;7.642;2023-03-14T14:11:18;8.23;;;1.60;;
3379;SDS011;1703;51.964;7.642;2023-03-14T14:13:48;5.87;;;1.73;;
3379;SDS011;1703;51.964;7.642;2023-03-14T14:16:16;10.93;;;1.70;;
3379;SDS011;1703;51.964;7.642;2023-03-14T14:18:49;6.93;;;1.67;;
3379;SDS011;1703;51.964;7.642;2023-03-14T14:21:21;6.60;;;1.43;;
3379;SDS011;1703;51.964;7.642;2023-03-14T14:23:58;8.40;;;1.87;;
3379;SDS011;1703;51.964;7.642;2023-03-14T14:26:26;3.10;;;1.50;;
3379;SDS011;1703;51.964;7.642;2023-03-14T14:29:03;6.87;;;1.70;;
3379;SDS011;1703;51.964;7.642;2023-03-14T14:31:32;4.13;;;1.27;;
3379;SDS011;1703;51.964;7.642;2023-03-14T14:34:01;6.43;;;2.03;;
3379;SDS011;1703;51.964;7.642;2023-03-14T14:40:00;5.03;;;1.87;;
3379;SDS011;1703;51.964;7.642;2023-03-14T14:43:27;3.47;;;1.20;;
3379;SDS011;1703;51.964;7.642;2023-03-14T14:46:30;6.37;;;1.77;;
3379;SDS011;1703;51.964;7.642;2023-03-14T14:49:05;12.37;;;1.53;;
3379;SDS011;1703;51.964;7.642;2023-03-14T14:51:51;6.60;;;1.70;;
3379;SDS011;1703;51.964;7.642;2023-03-14T14:55:19;9.53;;;1.47;;
3379;SDS011;1703;51.964;7.642;2023-03-14T15:01:38;5.47;;;1.03;;
3379;SDS011;1703;51.964;7.642;2023-03-14T15:04:10;5.30;;;1.40;;
3379;SDS011;1703;51.964;7.642;2023-03-14T15:06:39;7.97;;;1.30;;
3379;SDS011;1703;51.964;7.642;2023-03-14T15:09:08;4.40;;;1.73;;
3379;SDS011;1703;51.964;7.642;2023-03-14T15:11:37;7.40;;;1.30;;
3379;SDS011;1703;51.964;7.642;2023-03-14T15:14:03;2.73;;;1.27;;
3379;SDS011;1703;51.964;7.642;2023-03-14T15:16:34;4.03;;;1.53;;
3379;SDS011;1703;51.964;7.642;2023-03-14T15:19:08;5.03;;;1.07;;
3379;SDS011;1703;51.964;7.642;2023-03-14T15:21:42;6.47;;;1.60;;
3379;SDS011;1703;51.964;7.642;2023-03-14T15:24:09;6.60;;;1.03;;
3379;SDS011;1703;51.964;7.642;2023-03-14T15:26:36;4.93;;;1.10;;
3379;SDS011;1703;51.964;7.642;2023-03-14T15:29:03;4.83;;;1.37;;
3379;SDS011;1703;51.964;7.642;2023-03-14T15:31:33;5.90;;;1.60;;
3379;SDS011;1703;51.964;7.642;2023-03-14T15:34:01;4.20;;;1.43;;
3379;SDS011;1703;51.964;7.642;2023-03-14T15:36:31;14.83;;;4.10;;
3379;SDS011;1703;51.964;7.642;2023-03-14T15:43:23;4.50;;;1.43;;
3379;SDS011;1703;51.964;7.642;2023-03-14T15:47:04;4.57;;;1.03;;
3379;SDS011;1703;51.964;7.642;2023-03-14T15:50:44;1.77;;;0.97;;
3379;SDS011;1703;51.964;7.642;2023-03-14T15:53:49;6.67;;;1.80;;
3379;SDS011;1703;51.964;7.642;2023-03-14T15:56:17;4.93;;;1.60;;
3379;SDS011;1703;51.964;7.642;2023-03-14T15:58:45;6.73;;;1.30;;
3379;SDS011;1703;51.964;7.642;2023-03-14T16:01:12;7.60;;;1.30;;
3379;SDS011;1703;51.964;7.642;2023-03-14T16:03:40;4.00;;;1.03;;
3379;SDS011;1703;51.964;7.642;2023-03-14T16:06:09;10.27;;;2.40;;
3379;SDS011;1703;51.964;7.642;2023-03-14T16:08:35;2.33;;;1.63;;
3379;SDS011;1703;51.964;7.642;2023-03-14T16:11:04;5.43;;;0.90;;
3379;SDS011;1703;51.964;7.642;2023-03-14T16:13:31;5.23;;;1.20;;
3379;SDS011;1703;51.964;7.642;2023-03-14T16:15:58;1.53;;;1.00;;
3379;SDS011;1703;51.964;7.642;2023-03-14T16:18:26;7.70;;;1.30;;